Bw Njord — V7RX3 — position and weather

sailwx.info

Track history (hours):
 
Tides and Currents Weather Stations Pressure Air Temp Water Temp Dewpoint Dewpoint Depression Visibility Wind Speed Wind Dir Waves Ship Positions

Bw Njord

Last reported at 2018-May-22 17:05 UTC. Time now 2018-May-23 03:31 UTC.
Position N 37°49' E 122°32'.

Length 225 m; draft 7.9 m.

Type: Tanker. MMSI: 538006840.

Date/timePositionNaut miles runAvg speedWind from/ knotsBaromVisibWave heightAir tempDewpointWater temp
2018-May-22 17:05N 37°49' E 122°32'116.0
2018-May-22 17:00N 37°49' E 122°30'815.9
2018-May-22 16:30N 37°51' E 122°21'816.0
2018-May-22 16:00N 37°54' E 122°11'917.0
2018-May-22 15:30N 37°58' E 122°01'917.1
2018-May-22 15:00N 38°02' E 121°52'817.0
2018-May-22 14:30N 38°07' E 121°43'1217.0
2018-May-22 13:49N 38°14' E 121°32'516.8
2018-May-22 13:30N 38°18' E 121°27'816.4
2018-May-22 13:00N 38°23' E 121°18'816.3
2018-May-22 12:30N 38°26' E 121°09'915.3
2018-May-22 11:56N 38°31' E 120°59'  
2018-May-19 10:00N 38°53' E 118°05'0 0.0
2018-May-19 09:24N 38°53' E 118°05'0 0.0
2018-May-19 08:54N 38°53' E 118°05'0 0.0
2018-May-19 08:30N 38°53' E 118°05'0 0.0
2018-May-19 08:00N 38°53' E 118°05'0 0.0
2018-May-19 07:30N 38°53' E 118°05'0 0.0
2018-May-19 06:54N 38°53' E 118°05'101 2.9
2018-May-17 20:32N 38°40' E 120°14'014.2
2018-May-17 20:30N 38°40' E 120°14'1214.5
2018-May-17 19:41N 38°39' E 120°30'314.5
2018-May-17 19:29N 38°39' E 120°33'714.8
2018-May-17 18:59N 38°39' E 120°43'1114.6
2018-May-17 18:15N 38°36' E 120°56'715.0
2018-May-17 17:47N 38°32' E 121°04'414.9
2018-May-17 17:29N 38°31' E 121°09'  
Track history (hours):
 
Tides and Currents Weather Stations Pressure Air Temp Water Temp Dewpoint Dewpoint Depression Visibility Wind Speed Wind Dir Waves Ship Positions

Bw Njord

Last reported at 2018-May-22 17:05 UTC. Time now 2018-May-23 03:31 UTC.
Position N 37°49' E 122°32'.

Length 225 m; draft 7.9 m.

Type: Tanker. MMSI: 538006840.

Date/timePositionNaut miles runAvg speedWind from/ knotsBaromVisibWave heightAir tempDewpointWater temp
2018-May-22 17:05N 37°49' E 122°32'116.0
2018-May-22 17:00N 37°49' E 122°30'815.9
2018-May-22 16:30N 37°51' E 122°21'816.0
2018-May-22 16:00N 37°54' E 122°11'917.0
2018-May-22 15:30N 37°58' E 122°01'917.1
2018-May-22 15:00N 38°02' E 121°52'817.0
2018-May-22 14:30N 38°07' E 121°43'1217.0
2018-May-22 13:49N 38°14' E 121°32'516.8
2018-May-22 13:30N 38°18' E 121°27'816.4
2018-May-22 13:00N 38°23' E 121°18'816.3
2018-May-22 12:30N 38°26' E 121°09'915.3
2018-May-22 11:56N 38°31' E 120°59'  
2018-May-19 10:00N 38°53' E 118°05'0 0.0
2018-May-19 09:24N 38°53' E 118°05'0 0.0
2018-May-19 08:54N 38°53' E 118°05'0 0.0
2018-May-19 08:30N 38°53' E 118°05'0 0.0
2018-May-19 08:00N 38°53' E 118°05'0 0.0
2018-May-19 07:30N 38°53' E 118°05'0 0.0
2018-May-19 06:54N 38°53' E 118°05'101 2.9
2018-May-17 20:32N 38°40' E 120°14'014.2
2018-May-17 20:30N 38°40' E 120°14'1214.5
2018-May-17 19:41N 38°39' E 120°30'314.5
2018-May-17 19:29N 38°39' E 120°33'714.8
2018-May-17 18:59N 38°39' E 120°43'1114.6
2018-May-17 18:15N 38°36' E 120°56'715.0
2018-May-17 17:47N 38°32' E 121°04'414.9
2018-May-17 17:29N 38°31' E 121°09'  

Dump ship's entire track history